Latest Weather Observations for Kingaroy

IDQ60901

Issued at 2:51 am EST Tuesday 19 October 2021 (issued every 10 minutes, with the page automatically refreshed every 10 minutes)

About weather observations | Map of Brisbane area stations | Latest observations for Brisbane area | Other Formats
Station Details ID: 040922 Name: KINGAROY AIRPORT Lat: -26.57 Lon: 151.84 Height: 433.67 m
Data from the previous 72 hours. | See also: Recent months at Kingaroy
Date/Time
EST
Temp
°C
App
Temp
°C
Dew
Point
°C
Rel
Hum
%
Delta-T
°C
Wind Press
QNH
hPa
Press
MSL
hPa
Rain since
9am
mm
Dir  Spd
km/h
Gust
km/h
Spd
kts
Gust
kts
19/02:30am 11.9 10.8 11.9 100 0.0 SSW 9 11 5 6 1016.0 1014.5 0.0
19/02:00am 12.3 11.9 12.3 100 0.0 SSW 6 9 3 5 1016.4 1014.8 0.0
19/01:30am 12.1 12.8 12.1 100 0.0 CALM 0 0 0 0 1016.7 1015.1 0.0
19/01:03am 11.1 11.4 10.9 99 0.1 CALM 0 0 0 0 1017.0 1015.4 0.0
19/01:00am 11.2 11.5 11.0 99 0.1 CALM 0 0 0 0 1017.0 1015.4 0.0
19/12:51am 11.8 12.4 11.8 100 0.0 CALM 0 0 0 0 1017.1 1015.5 0.0
19/12:46am 11.9 12.5 11.9 100 0.0 CALM 0 0 0 0 1017.2 1015.6 0.0
19/12:30am 12.0 12.6 12.0 100 0.0 CALM 0 4 0 2 1017.3 1015.7 0.0
19/12:00am 12.0 12.6 12.0 100 0.0 CALM 0 0 0 0 1017.6 1016.0 0.0
 
Date/Time
EST
Temp
°C
App
Temp
°C
Dew
Point
°C
Rel
Hum
%
Delta-T
°C
Wind Press
QNH
hPa
Press
MSL
hPa
Rain since
9am
mm
Dir  Spd
km/h
Gust
km/h
Spd
kts
Gust
kts
18/11:30pm 12.0 12.6 12.0 100 0.0 CALM 0 0 0 0 1018.0 1016.4 0.0
18/11:00pm 12.2 11.7 12.2 100 0.0 E 6 9 3 5 1018.2 1016.7 0.0
18/10:30pm 12.3 13.0 12.1 99 0.1 CALM 0 0 0 0 1018.3 1016.8 0.0
18/10:00pm 12.6 13.4 12.4 99 0.1 CALM 0 0 0 0 1018.2 1016.7 0.0
18/09:30pm 13.2 14.1 13.0 99 0.1 CALM 0 0 0 0 1017.7 1016.1 0.0
18/09:00pm 13.6 12.6 13.4 99 0.1 S 11 15 6 8 1017.4 1015.8 0.0
18/08:30pm 13.7 12.3 13.5 99 0.1 S 13 15 7 8 1016.9 1015.3 0.0
18/08:00pm 14.3 12.5 13.3 94 0.6 S 15 19 8 10 1016.4 1014.8 0.0
18/07:30pm 14.3 13.9 14.1 99 0.1 S 9 13 5 7 1015.8 1014.2 0.0
18/07:00pm 14.5 15.4 13.0 91 0.8 CALM 0 6 0 3 1015.7 1014.1 0.0
18/06:30pm 14.4 13.9 13.8 96 0.3 NE 9 13 5 7 1015.2 1013.6 0.0
18/06:00pm 14.5 13.3 12.9 90 0.9 NE 11 17 6 9 1014.8 1013.2 0.0
18/05:30pm 14.6 14.0 14.6 100 0.0 NNE 11 17 6 9 1016.7 1015.1 0.0
18/05:14pm 14.4 14.7 14.4 100 0.0 NE 6 11 3 6 1017.6 1016.0 0.0
18/05:02pm 14.5 14.2 14.3 99 0.1 SE 9 13 5 7 1017.9 1016.3 0.0
18/05:00pm 14.5 13.8 14.3 99 0.1 SE 11 13 6 7 1018.0 1016.4 0.0
18/04:30pm 14.9 13.6 14.7 99 0.1 S 15 19 8 10 1018.2 1016.7 0.0
18/04:00pm 16.1 14.0 14.8 92 0.8 SW 19 30 10 16 1018.1 1016.6 0.0
18/03:30pm 16.5 16.3 14.7 89 1.1 SE 9 19 5 10 1016.1 1014.6 0.0
18/03:00pm 16.0 14.1 14.2 89 1.0 E 17 26 9 14 1014.6 1013.0 0.0
18/02:30pm 16.2 15.5 13.1 82 1.8 ENE 9 20 5 11 1014.5 1012.9 0.0
18/02:00pm 15.7 12.3 12.5 81 1.8 NE 22 35 12 19 1014.4 1012.8 0.0
18/01:58pm 15.7 11.9 12.5 81 1.8 NE 24 44 13 24 1014.4 1012.8 0.0
18/01:30pm 18.0 16.1 15.1 83 1.7 NNE 19 57 10 31 1014.7 1013.1 0.0
18/01:20pm 17.9 17.2 17.3 96 0.4 N 17 30 9 16 1014.5 1012.9 0.0
18/01:06pm 19.3 18.5 16.0 81 2.0 NNW 15 22 8 12 1014.2 1012.6 0.0
18/01:00pm 19.8 20.3 16.6 82 2.0 NNE 9 17 5 9 1014.3 1012.7 0.0
18/12:56pm 19.9 20.1 16.7 82 2.0 NNE 11 19 6 10 1014.2 1012.6 0.0
18/12:44pm 19.9 20.6 17.1 84 1.7 NE 9 15 5 8 1014.4 1012.8 0.0
18/12:30pm 20.2 19.6 16.6 80 2.2 NNE 15 24 8 13 1014.4 1012.8 0.0
18/12:24pm 20.4 19.4 16.6 79 2.3 NE 17 24 9 13 1014.3 1012.7 0.0
18/12:00pm 21.9 20.4 16.4 71 3.4 NE 19 35 10 19 1014.4 1012.8 0.0
18/11:44am 23.5 21.4 15.3 60 5.0 NE 20 33 11 18 1015.1 1013.5 0.0
18/11:30am 25.0 21.6 15.9 57 5.6 NNE 28 41 15 22 1015.1 1013.5 0.0
18/11:29am 25.3 21.8 15.6 55 6.0 NNE 28 41 15 22 1015.2 1013.6 0.0
18/11:00am 25.2 23.5 15.8 56 5.8 NE 19 32 10 17 1016.2 1014.7 0.0
18/10:30am 22.8 20.4 15.4 63 4.5 NNE 22 35 12 19 1016.9 1015.3 0.0
18/10:00am 23.6 21.5 16.1 62 4.6 NNE 22 43 12 23 1017.3 1015.7 0.0
18/09:30am 21.4 20.0 16.6 74 3.0 NE 19 30 10 16 1017.5 1015.9 0.0
18/09:00am 18.8 18.5 17.3 91 0.9 E 15 24 8 13 1017.5 1015.9 0.0
18/08:30am 18.9 18.8 16.1 84 1.7 NNE 11 20 6 11 1018.8 1017.2 0.0
18/08:00am 19.5 19.5 16.2 81 2.0 NE 11 19 6 10 1019.1 1017.5 0.0
18/07:52am 19.2 19.4 15.7 80 2.1 ENE 9 17 5 9 1018.9 1017.3 0.0
18/07:30am 18.8 19.4 15.7 82 1.9 ENE 7 9 4 5 1018.9 1017.3 0.0
18/07:25am 18.7 19.2 15.6 82 1.9 ENE 7 9 4 5 1018.9 1017.3 0.0
18/07:00am 17.9 17.9 15.3 85 1.5 E 9 15 5 8 1018.6 1017.1 0.0
18/06:30am 17.2 17.0 14.8 86 1.4 E 9 13 5 7 1018.2 1016.7 0.0
18/06:00am 16.5 16.2 14.3 87 1.3 E 9 13 5 7 1017.8 1016.2 0.0
18/05:30am 16.5 16.1 14.2 86 1.3 E 9 13 5 7 1017.4 1015.8 0.0
18/05:00am 16.6 16.6 14.2 86 1.4 ESE 7 11 4 6 1017.1 1015.5 0.0
18/04:30am 16.5 16.7 14.3 87 1.3 ESE 6 7 3 4 1016.9 1015.3 0.0
18/04:00am 16.1 16.1 14.3 89 1.0 SE 7 9 4 5 1016.6 1015.0 0.0
18/03:38am 15.6 15.7 14.0 90 0.9 SE 6 9 3 5 1016.6 1015.0 0.0
18/03:30am 15.3 15.3 13.7 90 0.9 ESE 6 7 3 4 1016.5 1014.9 0.0
18/03:00am 15.1 14.9 13.6 91 0.9 ESE 7 9 4 5 1016.6 1015.0 0.0
18/02:30am 14.8 15.8 13.2 90 0.9 CALM 0 0 0 0 1016.8 1015.2 0.0
18/02:00am 14.7 14.5 13.1 90 0.9 SSE 6 7 3 4 1016.8 1015.2 0.0
18/01:30am 15.0 14.8 13.0 88 1.1 S 6 7 3 4 1016.9 1015.3 0.0
18/01:00am 15.4 15.2 12.9 85 1.4 E 6 11 3 6 1016.9 1015.3 0.0
18/12:30am 15.3 14.4 12.6 84 1.5 E 9 13 5 7 1017.0 1015.4 0.0
18/12:00am 14.7 13.6 11.8 83 1.6 E 9 11 5 6 1017.1 1015.5 0.0
 
Date/Time
EST
Temp
°C
App
Temp
°C
Dew
Point
°C
Rel
Hum
%
Delta-T
°C
Wind Press
QNH
hPa
Press
MSL
hPa
Rain since
9am
mm
Dir  Spd
km/h
Gust
km/h
Spd
kts
Gust
kts
17/11:30pm 15.2 13.5 11.2 77 2.2 E 11 13 6 7 1017.5 1015.9 0.0
17/11:00pm 15.6 13.7 10.4 71 2.8 E 11 13 6 7 1017.4 1015.8 0.0
17/10:30pm 15.7 14.2 10.5 71 2.8 E 9 13 5 7 1017.5 1015.9 0.0
17/10:00pm 16.2 14.6 10.3 68 3.2 E 9 11 5 6 1017.6 1016.0 0.0
17/09:30pm 16.4 15.3 10.0 66 3.4 E 6 7 3 4 1017.5 1015.9 0.0
17/09:00pm 17.0 16.3 9.9 63 3.8 ESE 4 7 2 4 1017.4 1015.8 0.0
17/08:30pm 18.3 17.9 9.9 58 4.6 SSE 2 11 1 6 1017.0 1015.4 0.0
17/08:00pm 19.1 17.4 9.9 55 5.0 ENE 9 13 5 7 1016.1 1014.6 0.0
17/07:30pm 19.8 17.9 9.1 50 5.8 ENE 9 17 5 9 1015.7 1014.1 0.0
17/07:00pm 20.5 17.5 7.8 44 6.7 ENE 13 24 7 13 1015.1 1013.5 0.0
17/06:30pm 18.3 15.9 6.8 47 5.9 E 9 11 5 6 1014.3 1012.7 0.0
17/06:29pm 18.4 16.0 6.9 47 5.9 E 9 11 5 6 1014.3 1012.7 0.0
17/06:00pm 23.4 22.1 3.9 28 9.7 CALM 0 0 0 0 1014.0 1012.3 0.0
17/05:30pm 25.4 24.0 3.4 24 11.0 CALM 0 0 0 0 1013.4 1011.8 0.0
17/05:00pm 26.3 22.6 0.1 18 12.5 NW 9 13 5 7 1012.9 1011.3 0.0
17/04:30pm 26.9 23.4 1.3 19 12.5 WNW 9 15 5 8 1012.7 1011.1 0.0
17/04:00pm 27.3 24.1 0.9 18 12.8 WNW 7 19 4 10 1012.6 1011.0 0.0
17/03:30pm 27.3 23.9 1.7 19 12.6 NW 9 13 5 7 1012.7 1011.1 0.0
17/03:00pm 27.4 22.5 1.8 19 12.7 WNW 17 28 9 15 1012.9 1011.3 0.0
17/02:30pm 26.8 21.8 1.3 19 12.4 WNW 17 30 9 16 1013.1 1011.5 0.0
17/02:00pm 26.7 22.7 2.6 21 12.0 NW 13 26 7 14 1013.5 1011.9 0.0
17/01:30pm 26.4 22.0 4.8 25 11.2 NNW 17 24 9 13 1014.0 1012.3 0.0
17/01:00pm 26.6 21.8 2.5 21 12.0 NW 17 26 9 14 1014.5 1012.9 0.0
17/12:30pm 25.8 22.1 4.3 25 11.0 WNW 13 22 7 12 1014.8 1013.2 0.0
17/12:00pm 25.5 20.9 3.5 24 11.1 WNW 17 32 9 17 1015.3 1013.7 0.0
17/11:30am 24.9 20.6 3.5 25 10.7 W 15 22 8 12 1015.9 1014.3 0.0
17/11:00am 25.2 21.9 6.4 30 9.9 WSW 13 30 7 16 1016.4 1014.8 0.0
17/10:30am 23.1 20.0 3.6 28 9.7 SE 9 15 5 8 1017.0 1015.4 0.0
17/10:00am 22.8 19.4 3.9 29 9.4 W 11 17 6 9 1017.4 1015.8 0.0
17/09:30am 21.8 18.7 3.5 30 9.0 SW 9 17 5 9 1017.5 1015.9 0.0
17/09:00am 21.2 18.3 4.7 34 8.2 WSW 9 15 5 8 1017.7 1016.1 0.0
17/08:30am 20.2 17.8 5.1 37 7.6 S 7 13 4 7 1017.8 1016.2 0.0
17/08:00am 18.7 17.4 7.8 49 5.7 WSW 4 7 2 4 1017.7 1016.1 0.0
17/07:30am 15.2 14.7 8.0 62 3.7 CALM 0 0 0 0 1017.4 1015.8 0.0
17/07:00am 11.6 11.2 8.3 80 1.7 CALM 0 0 0 0 1017.0 1015.4 0.0
17/06:30am 9.3 8.6 6.9 85 1.2 CALM 0 0 0 0 1016.7 1015.1 0.0
17/06:00am 7.1 6.1 5.4 89 0.8 CALM 0 0 0 0 1016.2 1014.7 0.0
17/05:30am 6.1 4.6 5.2 94 0.4 NE 2 6 1 3 1015.7 1014.1 0.0
17/05:00am 6.0 4.5 4.8 92 0.5 E 2 6 1 3 1015.1 1013.5 0.0
17/04:30am 6.6 4.6 4.6 87 0.9 S 4 6 2 3 1014.8 1013.2 0.0
17/04:00am 6.5 5.3 4.8 89 0.8 CALM 0 0 0 0 1014.5 1012.9 0.0
17/03:30am 6.5 5.3 4.7 88 0.8 CALM 0 0 0 0 1014.4 1012.8 0.0
17/03:00am 7.3 6.1 4.6 83 1.2 CALM 0 0 0 0 1014.1 1012.5 0.0
17/02:30am 7.4 6.3 4.9 84 1.1 CALM 0 0 0 0 1014.0 1012.3 0.0
17/02:00am 8.0 5.8 5.5 84 1.2 NW 6 7 3 4 1014.1 1012.5 0.0
17/01:30am 8.5 7.3 4.5 76 1.8 CALM 0 0 0 0 1014.0 1012.3 0.0
17/01:00am 8.5 7.4 4.9 78 1.6 CALM 0 0 0 0 1014.0 1012.3 0.0
17/12:30am 8.9 7.7 4.7 75 1.9 CALM 0 0 0 0 1014.2 1012.6 0.0
17/12:00am 9.0 7.8 4.6 74 2.0 CALM 0 0 0 0 1014.4 1012.8 0.0
 
Date/Time
EST
Temp
°C
App
Temp
°C
Dew
Point
°C
Rel
Hum
%
Delta-T
°C
Wind Press
QNH
hPa
Press
MSL
hPa
Rain since
9am
mm
Dir  Spd
km/h
Gust
km/h
Spd
kts
Gust
kts
16/11:30pm 9.3 8.1 4.7 73 2.1 CALM 0 0 0 0 1014.5 1012.9 0.0
16/11:00pm 10.3 7.7 4.2 66 2.8 S 7 9 4 5 1014.6 1013.0 0.0
16/10:30pm 10.7 7.9 5.0 68 2.7 S 9 9 5 5 1014.5 1012.9 0.0
16/10:00pm 10.3 8.9 5.3 71 2.3 E 2 7 1 4 1014.4 1012.8 0.0
16/09:30pm 11.3 9.1 5.2 66 2.9 E 6 7 3 4 1014.2 1012.6 0.0
16/09:00pm 12.0 11.0 5.4 64 3.1 CALM 0 7 0 4 1014.0 1012.3 0.0
16/08:30pm 12.8 11.8 5.5 61 3.5 CALM 0 0 0 0 1013.6 1012.0 0.0
16/08:00pm 13.2 11.5 5.9 61 3.5 ESE 4 6 2 3 1013.2 1011.6 0.0
16/07:30pm 16.4 13.6 3.1 41 6.2 S 7 9 4 5 1012.8 1011.2 0.0
16/07:00pm 19.1 15.7 2.0 32 8.0 SW 9 15 5 8 1012.4 1010.8 0.0
16/06:30pm 20.0 16.6 1.9 30 8.5 SW 9 15 5 8 1012.0 1010.4 0.0
16/06:00pm 21.3 16.8 2.1 28 9.1 SW 15 20 8 11 1011.6 1009.9 0.0
16/05:30pm 22.8 17.6 2.3 26 9.9 WSW 19 24 10 13 1011.0 1009.4 0.0
16/05:00pm 23.7 18.4 2.0 24 10.5 WSW 19 26 10 14 1010.5 1008.9 0.0
16/04:30pm 24.1 18.6 1.7 23 10.8 WSW 20 32 11 17 1010.2 1008.6 0.0
16/04:00pm 24.4 18.5 1.9 23 10.9 SW 22 39 12 21 1009.9 1008.2 0.0
16/03:30pm 24.4 18.3 2.5 24 10.7 WSW 24 35 13 19 1009.9 1008.2 0.0
16/03:00pm 24.4 19.2 2.5 24 10.8 SW 19 39 10 21 1010.0 1008.4 0.0
16/02:30pm 24.7 19.0 2.8 24 10.8 WSW 22 33 12 18 1010.1 1008.5 0.0
16/02:00pm 24.9 18.9 3.5 25 10.7 WSW 24 35 13 19 1010.2 1008.6 0.0
16/01:30pm 24.1 18.5 3.4 26 10.3 W 22 35 12 19 1010.6 1009.0 0.0
16/01:00pm 24.0 17.5 2.8 25 10.4 WSW 26 39 14 21 1010.9 1009.3 0.0
16/12:30pm 23.4 17.1 1.7 24 10.4 WSW 24 41 13 22 1011.3 1009.7 0.0
16/12:00pm 23.4 16.7 3.4 27 9.9 WSW 28 44 15 24 1011.7 1010.0 0.0
16/11:30am 23.5 17.9 5.4 31 9.3 WSW 24 43 13 23 1012.1 1010.5 0.0
16/11:00am 22.1 15.4 3.7 30 9.1 WSW 28 41 15 22 1012.4 1010.8 0.0
16/10:42am 22.2 15.6 4.3 31 8.9 W 28 48 15 26 1012.4 1010.8 0.0
16/10:30am 21.9 15.4 4.5 32 8.7 WSW 28 44 15 24 1012.8 1011.2 0.0
16/10:00am 21.3 14.3 4.0 32 8.5 SW 30 41 16 22 1013.1 1011.5 0.0
16/09:30am 20.4 13.1 2.7 31 8.5 WSW 30 44 16 24 1013.2 1011.6 0.0
16/09:00am 20.5 13.5 4.1 34 8.1 SW 30 41 16 22 1013.2 1011.6 0.0
16/08:30am 19.8 13.5 3.5 34 7.9 SW 26 39 14 21 1013.3 1011.7 0.0
16/08:23am 19.4 12.5 2.7 33 7.9 SW 28 39 15 21 1013.3 1011.7 0.0
16/08:00am 17.0 14.7 5.6 47 5.6 W 7 11 4 6 1013.2 1011.6 0.0
16/07:30am 15.0 13.0 6.3 56 4.3 NW 6 9 3 5 1012.9 1011.3 0.0
16/07:00am 12.3 10.5 7.0 70 2.6 NW 6 7 3 4 1012.6 1011.0 0.0
16/06:30am 9.6 9.0 7.2 85 1.2 CALM 0 0 0 0 1012.4 1010.8 0.0
16/06:00am 7.7 6.6 5.2 84 1.1 CALM 0 0 0 0 1012.2 1010.6 0.0
16/05:30am 6.6 5.4 4.4 86 1.0 CALM 0 0 0 0 1012.0 1010.4 0.0
16/05:00am 6.4 5.1 3.9 84 1.1 CALM 0 0 0 0 1011.6 1009.9 0.0
16/04:30am 6.3 5.0 4.0 85 1.0 CALM 0 0 0 0 1011.2 1009.6 0.0
16/04:00am 7.5 6.1 3.7 77 1.7 CALM 0 0 0 0 1011.0 1009.4 0.0
16/03:30am 7.7 5.3 4.1 78 1.6 E 6 7 3 4 1010.8 1009.2 0.0
16/03:00am 8.2 5.7 3.9 74 1.9 E 6 9 3 5 1010.6 1009.0 0.0

Latest Capital City Observations: Canberra | Sydney | Melbourne | Brisbane | Adelaide | Perth | Hobart | Darwin

Other formats

Comma delimited format used in spreadsheet applications
http://www.bom.gov.au/fwo/IDQ60901/IDQ60901.94549.axf

JavaScript Object Notation format (JSON) in row-major order
http://www.bom.gov.au/fwo/IDQ60901/IDQ60901.94549.json

Data quality

Most of these data are generated automatically and are frequently updated. Quality checks on data are not normally performed. It is possible for incorrect values to appear. Refer to information at About Latest Weather Observations and please check the disclaimer before using these data.